Time;durP1;ratioP1;P1;durP2;ratioP2;P2;SDS_P1;SDS_P2;PMS_P1;PMS_P2;Temp;Humidity;BMP_temperature;BMP_pressure;BME280_temperature;BME280_humidity;BME280_pressure;Samples;Min_cycle;Max_cycle;Signal;HPM_P1;HPM_P2
2022/10/16 00:00:48;;;;;;;6.60;2.80;;;17.70;99.90;;;;;;5014614;28;20482;-85
2022/10/16 00:03:14;;;;;;;2.93;2.10;;;17.60;99.90;;;;;;5014125;28;20482;-86
2022/10/16 00:05:43;;;;;;;6.17;2.73;;;17.50;99.90;;;;;;5014040;28;20522;-86
2022/10/16 00:08:11;;;;;;;2.87;2.30;;;17.50;99.90;;;;;;5014071;28;20435;-86
2022/10/16 00:10:38;;;;;;;4.80;2.27;;;17.40;99.90;;;;;;5015052;28;20447;-86
2022/10/16 00:13:07;;;;;;;4.13;2.60;;;17.40;99.90;;;;;;5014760;28;20467;-86
2022/10/16 00:15:36;;;;;;;4.90;3.20;;;17.40;99.90;;;;;;5013684;28;20438;-86
2022/10/16 00:18:04;;;;;;;4.13;3.00;;;17.30;99.90;;;;;;5032921;28;20443;-84
2022/10/16 00:20:31;;;;;;;3.27;2.80;;;17.30;99.90;;;;;;5036437;28;20505;-86
2022/10/16 00:22:58;;;;;;;4.87;3.10;;;17.20;99.90;;;;;;5033530;28;20485;-84
2022/10/16 00:25:24;;;;;;;3.97;2.60;;;17.20;99.90;;;;;;5019229;28;20443;-86
2022/10/16 00:27:51;;;;;;;3.90;2.50;;;17.20;99.90;;;;;;5024704;28;20982;-84
2022/10/16 00:30:19;;;;;;;2.73;2.50;;;17.20;99.90;;;;;;5016154;28;20454;-86
2022/10/16 00:32:46;;;;;;;6.70;2.87;;;17.10;99.90;;;;;;5014341;28;20462;-86
2022/10/16 00:35:13;;;;;;;7.73;2.80;;;17.00;99.90;;;;;;5014011;28;20450;-86
2022/10/16 00:37:40;;;;;;;6.53;3.03;;;17.00;99.90;;;;;;5034805;28;20444;-85
2022/10/16 00:40:07;;;;;;;4.43;2.70;;;16.90;99.90;;;;;;5038538;28;20497;-86
2022/10/16 00:42:34;;;;;;;3.10;2.50;;;16.90;99.90;;;;;;5032229;28;20533;-86
2022/10/16 00:45:01;;;;;;;5.10;3.03;;;16.90;99.90;;;;;;5027530;28;20462;-86
2022/10/16 00:47:31;;;;;;;4.10;2.70;;;17.00;99.90;;;;;;5027071;28;20435;-85
2022/10/16 00:50:05;;;;;;;4.27;2.80;;;16.90;99.90;;;;;;5013927;28;20442;-86
2022/10/16 00:52:32;;;;;;;5.73;2.87;;;16.90;99.90;;;;;;5018352;28;20442;-86
2022/10/16 00:55:00;;;;;;;3.73;2.90;;;16.90;99.90;;;;;;5037989;28;20545;-85
2022/10/16 00:57:27;;;;;;;4.00;2.90;;;16.90;99.90;;;;;;5038735;28;20447;-86
2022/10/16 00:59:54;;;;;;;5.40;3.13;;;16.90;99.90;;;;;;5038329;28;20483;-86
2022/10/16 01:02:21;;;;;;;3.77;2.50;;;16.80;99.90;;;;;;5030555;28;20513;-86
2022/10/16 01:04:52;;;;;;;6.07;3.13;;;16.80;99.90;;;;;;5020949;28;20479;-86
2022/10/16 01:07:31;;;;;;;4.33;2.80;;;16.90;99.90;;;;;;5016628;28;20447;-86
2022/10/16 01:10:08;;;;;;;2.83;2.53;;;16.90;99.90;;;;;;5015586;28;20461;-86
2022/10/16 01:12:42;;;;;;;3.70;2.87;;;16.90;99.90;;;;;;5022815;28;20447;-86
2022/10/16 01:15:15;;;;;;;3.07;2.67;;;16.90;99.90;;;;;;5016389;28;20450;-86
2022/10/16 01:17:46;;;;;;;3.13;2.83;;;16.90;99.90;;;;;;5017024;28;20459;-86
2022/10/16 01:20:22;;;;;;;2.50;2.23;;;16.90;99.90;;;;;;5035536;28;20496;-85
2022/10/16 01:23:00;;;;;;;4.20;3.00;;;17.00;99.90;;;;;;5036726;28;20464;-85
2022/10/16 01:25:38;;;;;;;5.07;3.13;;;17.00;99.90;;;;;;5015085;28;20552;-86
2022/10/16 01:28:11;;;;;;;6.10;3.00;;;17.00;99.90;;;;;;5013727;28;20497;-85
2022/10/16 01:30:41;;;;;;;4.77;3.30;;;16.90;99.90;;;;;;5013415;28;20443;-86
2022/10/16 01:33:13;;;;;;;4.53;3.17;;;17.00;99.90;;;;;;5027714;28;20469;-86
2022/10/16 01:35:44;;;;;;;5.83;3.00;;;17.00;99.90;;;;;;5023540;28;20454;-86
2022/10/16 01:38:16;;;;;;;6.57;2.63;;;16.90;99.90;;;;;;5013432;28;20489;-86
2022/10/16 01:40:47;;;;;;;9.90;3.60;;;16.90;99.90;;;;;;5012751;28;20482;-86
2022/10/16 01:43:18;;;;;;;5.87;3.03;;;16.90;99.90;;;;;;5012895;28;20473;-86
2022/10/16 01:45:46;;;;;;;4.00;3.03;;;16.90;99.90;;;;;;5012641;28;20456;-86
2022/10/16 01:48:17;;;;;;;6.33;2.93;;;17.00;99.90;;;;;;5012314;28;20447;-86
2022/10/16 01:50:49;;;;;;;3.93;2.47;;;16.90;99.90;;;;;;5012412;28;20439;-86
2022/10/16 01:53:17;;;;;;;4.40;2.53;;;16.90;99.90;;;;;;5011728;28;20844;-86
2022/10/16 01:55:48;;;;;;;6.20;2.80;;;16.90;99.90;;;;;;5012233;28;20950;-86
2022/10/16 01:58:16;;;;;;;4.73;2.90;;;16.90;99.90;;;;;;5012176;28;20991;-86
2022/10/16 02:00:46;;;;;;;4.53;3.37;;;16.90;99.90;;;;;;5012086;28;20479;-84
2022/10/16 02:03:16;;;;;;;9.50;3.30;;;16.90;99.90;;;;;;5034406;28;20474;-83
2022/10/16 02:05:46;;;;;;;9.10;3.47;;;16.90;99.90;;;;;;5027625;28;20439;-84
2022/10/16 02:08:14;;;;;;;3.90;2.80;;;16.90;99.90;;;;;;5012294;28;20454;-84
2022/10/16 02:10:41;;;;;;;8.27;3.90;;;16.80;99.90;;;;;;5012521;28;20447;-84
2022/10/16 02:13:11;;;;;;;3.90;2.57;;;16.80;99.90;;;;;;5012261;28;20474;-84
2022/10/16 02:15:39;;;;;;;4.33;2.90;;;16.80;99.90;;;;;;5012503;28;20445;-84
2022/10/16 02:18:07;;;;;;;5.50;3.20;;;16.80;99.90;;;;;;5012518;28;20461;-84
2022/10/16 02:20:40;;;;;;;3.63;2.73;;;16.80;99.90;;;;;;5012438;28;20478;-84
2022/10/16 02:23:12;;;;;;;3.50;3.10;;;16.80;99.90;;;;;;5013286;28;20481;-84
2022/10/16 02:25:44;;;;;;;5.80;3.13;;;16.80;99.90;;;;;;5014313;28;20505;-85
2022/10/16 02:28:16;;;;;;;3.90;2.67;;;16.80;99.90;;;;;;5018368;28;20481;-83
2022/10/16 02:30:48;;;;;;;3.60;2.70;;;16.80;99.90;;;;;;5035054;28;20441;-84
2022/10/16 02:33:17;;;;;;;4.77;2.93;;;16.80;99.90;;;;;;5028173;28;20516;-85
2022/10/16 02:35:46;;;;;;;5.17;3.73;;;16.80;99.90;;;;;;5015948;28;20940;-85
2022/10/16 02:38:15;;;;;;;3.60;2.80;;;16.80;99.90;;;;;;5014229;28;20442;-85
2022/10/16 02:40:42;;;;;;;4.37;2.83;;;16.80;99.90;;;;;;5017064;28;20871;-85
2022/10/16 02:43:10;;;;;;;4.97;2.90;;;16.80;99.90;;;;;;5021340;28;20473;-84
2022/10/16 02:45:37;;;;;;;3.90;3.43;;;16.80;99.90;;;;;;5019352;28;20943;-85
2022/10/16 02:48:05;;;;;;;6.37;3.37;;;16.80;99.90;;;;;;5024904;28;20453;-85
2022/10/16 02:50:32;;;;;;;5.23;3.30;;;16.70;99.90;;;;;;5025745;28;20447;-85
2022/10/16 02:52:59;;;;;;;4.47;2.80;;;16.80;99.90;;;;;;5033633;28;20515;-86
2022/10/16 02:55:26;;;;;;;4.77;2.67;;;16.80;99.90;;;;;;5030019;28;20458;-85
2022/10/16 02:57:52;;;;;;;5.93;2.70;;;16.70;99.90;;;;;;5016587;28;20451;-85
2022/10/16 03:00:19;;;;;;;6.83;2.50;;;16.70;99.90;;;;;;5016343;28;20548;-85
2022/10/16 03:02:47;;;;;;;3.00;2.47;;;16.70;99.90;;;;;;5016255;28;20466;-85
2022/10/16 03:05:15;;;;;;;6.47;2.80;;;16.70;99.90;;;;;;5017735;28;20439;-85
2022/10/16 03:07:42;;;;;;;5.37;3.20;;;16.70;99.90;;;;;;5015866;28;20470;-85
2022/10/16 03:10:09;;;;;;;4.80;3.40;;;16.60;99.90;;;;;;5014632;28;20458;-85
2022/10/16 03:12:36;;;;;;;3.00;2.63;;;16.70;99.90;;;;;;5014930;28;20478;-85
2022/10/16 03:15:03;;;;;;;5.17;3.03;;;16.70;99.90;;;;;;5024428;28;20438;-85
2022/10/16 03:17:30;;;;;;;3.57;3.07;;;16.70;99.90;;;;;;5022212;28;20453;-86
2022/10/16 03:19:56;;;;;;;5.10;3.20;;;16.70;99.90;;;;;;5039334;28;20433;-83
2022/10/16 03:22:25;;;;;;;6.63;3.77;;;16.70;99.90;;;;;;5033326;28;20490;-85
2022/10/16 03:24:51;;;;;;;3.63;2.97;;;16.60;99.90;;;;;;5017042;28;20457;-85
2022/10/16 03:27:18;;;;;;;7.73;2.77;;;16.60;99.90;;;;;;5015701;28;20817;-85
2022/10/16 03:29:45;;;;;;;8.83;3.40;;;16.60;99.90;;;;;;5015413;28;20443;-86
2022/10/16 03:32:11;;;;;;;5.10;3.47;;;16.60;99.90;;;;;;5015446;28;20442;-84
2022/10/16 03:34:38;;;;;;;5.37;2.70;;;16.50;99.90;;;;;;5015233;28;20840;-85
2022/10/16 03:37:05;;;;;;;4.33;2.30;;;16.50;99.90;;;;;;5014931;28;20451;-85
2022/10/16 03:39:33;;;;;;;5.87;3.67;;;16.50;99.90;;;;;;5018530;28;20446;-85
2022/10/16 03:42:00;;;;;;;4.83;3.00;;;16.50;99.90;;;;;;5028921;28;20553;-85
2022/10/16 03:44:27;;;;;;;3.83;3.20;;;16.40;99.90;;;;;;5018402;28;20586;-85
2022/10/16 03:46:53;;;;;;;7.27;3.20;;;16.50;99.90;;;;;;5014465;28;20834;-85
2022/10/16 03:49:20;;;;;;;6.30;3.20;;;16.40;99.90;;;;;;5014608;28;20446;-85
2022/10/16 03:51:47;;;;;;;5.13;3.47;;;16.40;99.90;;;;;;5014473;28;20446;-85
2022/10/16 03:54:13;;;;;;;7.13;3.37;;;16.40;99.90;;;;;;5014844;28;20970;-85
2022/10/16 03:56:42;;;;;;;4.23;3.00;;;16.40;99.90;;;;;;5014559;28;20454;-85
2022/10/16 03:59:08;;;;;;;6.40;3.30;;;16.50;99.90;;;;;;5014467;28;20446;-85
2022/10/16 04:01:35;;;;;;;5.00;3.30;;;16.40;99.90;;;;;;5014341;28;20868;-85
2022/10/16 04:04:02;;;;;;;27.60;4.80;;;16.40;99.90;;;;;;5014239;28;20481;-85
2022/10/16 04:06:28;;;;;;;6.70;3.20;;;16.30;99.90;;;;;;5014407;28;20457;-85
2022/10/16 04:08:56;;;;;;;8.13;3.97;;;16.30;99.90;;;;;;5013948;28;20450;-85
2022/10/16 04:11:22;;;;;;;5.27;3.30;;;16.20;99.90;;;;;;5014333;28;20451;-85
2022/10/16 04:13:50;;;;;;;5.53;3.40;;;16.20;99.90;;;;;;5014720;28;20474;-85
2022/10/16 04:16:17;;;;;;;6.17;2.70;;;16.30;99.90;;;;;;5030847;28;20461;-86
2022/10/16 04:18:44;;;;;;;3.70;3.13;;;16.20;99.90;;;;;;5032275;28;20509;-88
2022/10/16 04:21:11;;;;;;;12.73;3.60;;;16.30;99.90;;;;;;5022385;28;20961;-82
2022/10/16 04:23:37;;;;;;;5.80;3.93;;;16.20;99.90;;;;;;5020808;28;20476;-83
2022/10/16 04:26:04;;;;;;;6.87;3.77;;;16.00;99.90;;;;;;5020937;28;20448;-83
2022/10/16 04:28:31;;;;;;;3.83;2.93;;;16.00;99.90;;;;;;5019859;28;20450;-83
2022/10/16 04:30:59;;;;;;;4.43;3.47;;;16.00;99.90;;;;;;5020885;28;20943;-83
2022/10/16 04:33:26;;;;;;;5.40;3.47;;;16.00;99.90;;;;;;5025990;28;20474;-81
2022/10/16 04:35:57;;;;;;;4.70;3.17;;;16.10;99.90;;;;;;5035145;28;20697;-81
2022/10/16 04:38:24;;;;;;;4.30;3.40;;;16.10;99.90;;;;;;5023958;28;20446;-83
2022/10/16 04:40:51;;;;;;;4.67;2.80;;;16.10;99.90;;;;;;5020248;28;20461;-83
2022/10/16 04:43:18;;;;;;;4.83;2.67;;;16.20;99.90;;;;;;5019940;28;20490;-83
2022/10/16 04:45:45;;;;;;;4.30;2.80;;;16.20;99.90;;;;;;5019847;28;20462;-83
2022/10/16 04:48:13;;;;;;;5.97;2.83;;;16.20;99.90;;;;;;5048784;22;20500;-81
2022/10/16 04:50:39;;;;;;;6.27;3.00;;;16.20;99.90;;;;;;5056603;28;20940;-82
2022/10/16 04:53:07;;;;;;;5.33;3.17;;;16.20;99.90;;;;;;5055820;28;20474;-83
2022/10/16 04:55:33;;;;;;;3.83;3.10;;;16.20;99.90;;;;;;5058336;28;20459;-82
2022/10/16 04:58:00;;;;;;;9.53;3.40;;;16.20;99.90;;;;;;5066993;28;20531;-82
2022/10/16 05:00:27;;;;;;;5.13;3.20;;;16.20;99.90;;;;;;5052121;28;20445;-82
2022/10/16 05:02:54;;;;;;;3.50;2.80;;;16.20;99.90;;;;;;5039724;28;20489;-82
2022/10/16 05:05:22;;;;;;;6.10;3.00;;;16.20;99.90;;;;;;5051032;28;20444;-84
2022/10/16 05:07:50;;;;;;;6.47;2.73;;;16.20;99.90;;;;;;5051860;28;20487;-83
2022/10/16 05:10:19;;;;;;;3.37;3.00;;;16.20;99.90;;;;;;5036196;28;20491;-83
2022/10/16 05:12:46;;;;;;;6.77;3.07;;;16.10;99.90;;;;;;5034867;28;20871;-83
2022/10/16 05:15:13;;;;;;;4.80;3.53;;;16.10;99.90;;;;;;5034120;28;20477;-82
2022/10/16 05:17:40;;;;;;;4.13;3.40;;;16.10;99.90;;;;;;5033833;28;20454;-83
2022/10/16 05:20:07;;;;;;;3.97;3.37;;;16.20;99.90;;;;;;5041025;28;20437;-82
2022/10/16 05:22:36;;;;;;;3.90;2.90;;;16.10;99.90;;;;;;5044286;28;21008;-83
2022/10/16 05:25:02;;;;;;;3.87;3.33;;;16.10;99.90;;;;;;5035702;28;20449;-83
2022/10/16 05:27:29;;;;;;;4.70;2.90;;;16.10;99.90;;;;;;5038206;28;20438;-83
2022/10/16 05:29:56;;;;;;;9.87;2.53;;;16.10;99.90;;;;;;5043468;28;20452;-83
2022/10/16 05:32:23;;;;;;;6.10;2.20;;;16.10;99.90;;;;;;5035883;28;20446;-83
2022/10/16 05:34:49;;;;;;;5.20;2.97;;;16.10;99.90;;;;;;5035750;28;20446;-83
2022/10/16 05:37:16;;;;;;;3.23;2.57;;;16.10;99.90;;;;;;5033619;28;20450;-83
2022/10/16 05:39:44;;;;;;;4.07;2.77;;;16.00;99.90;;;;;;5033323;28;20472;-82
2022/10/16 05:42:11;;;;;;;8.80;2.60;;;16.00;99.90;;;;;;5033619;28;20485;-82
2022/10/16 05:44:37;;;;;;;4.27;2.53;;;16.00;99.90;;;;;;5033428;28;20453;-83
2022/10/16 05:47:04;;;;;;;6.30;2.93;;;16.00;99.90;;;;;;5033161;28;20461;-83
2022/10/16 05:49:31;;;;;;;5.13;3.83;;;16.00;99.90;;;;;;5033384;28;20484;-83
2022/10/16 05:51:58;;;;;;;6.03;3.10;;;15.90;99.90;;;;;;5033832;28;20446;-83
2022/10/16 05:54:24;;;;;;;4.80;3.00;;;15.90;99.90;;;;;;5036264;28;20834;-82
2022/10/16 05:56:52;;;;;;;10.70;3.80;;;15.90;99.90;;;;;;5040576;28;20493;-82
2022/10/16 05:59:19;;;;;;;3.27;2.83;;;15.90;99.90;;;;;;5044493;28;20467;-83
2022/10/16 06:01:46;;;;;;;5.73;3.00;;;16.00;99.90;;;;;;5045707;28;20481;-84
2022/10/16 06:04:13;;;;;;;4.50;3.07;;;16.00;99.90;;;;;;5038348;28;20456;-82
2022/10/16 06:06:39;;;;;;;5.17;4.00;;;16.10;99.90;;;;;;5033922;28;20448;-82
2022/10/16 06:09:06;;;;;;;3.63;3.33;;;16.10;99.90;;;;;;5033333;28;20476;-83
2022/10/16 06:11:37;;;;;;;4.03;3.03;;;16.10;99.90;;;;;;5034252;28;20449;-83
2022/10/16 06:14:07;;;;;;;4.43;3.17;;;16.20;99.90;;;;;;5038051;28;20447;-82
2022/10/16 06:16:34;;;;;;;4.23;3.07;;;16.20;99.90;;;;;;5051651;28;20943;-83
2022/10/16 06:19:01;;;;;;;14.03;3.40;;;16.30;99.90;;;;;;5054766;28;20461;-82
2022/10/16 06:21:29;;;;;;;5.70;3.10;;;16.30;99.90;;;;;;5051504;28;21007;-83
2022/10/16 06:23:57;;;;;;;4.47;2.67;;;16.40;99.90;;;;;;5040736;28;20447;-83
2022/10/16 06:26:25;;;;;;;6.27;2.93;;;16.40;99.90;;;;;;5039070;28;20457;-83
2022/10/16 06:28:52;;;;;;;6.70;2.90;;;16.50;99.90;;;;;;5037702;28;20463;-83
2022/10/16 06:31:21;;;;;;;7.03;3.40;;;16.50;99.90;;;;;;5041143;28;20449;-82
2022/10/16 06:33:52;;;;;;;6.00;3.07;;;16.50;99.90;;;;;;5059555;28;20443;-82
2022/10/16 06:36:19;;;;;;;3.43;2.97;;;16.50;99.90;;;;;;5056066;28;20890;-83
2022/10/16 06:38:45;;;;;;;3.93;3.50;;;16.50;99.90;;;;;;5039328;28;20461;-83
2022/10/16 06:41:14;;;;;;;3.80;3.10;;;16.60;99.90;;;;;;5038229;28;20449;-82
2022/10/16 06:43:41;;;;;;;4.03;3.40;;;16.50;99.90;;;;;;5038086;28;20445;-83
2022/10/16 06:46:10;;;;;;;6.10;3.87;;;16.60;99.90;;;;;;5037893;28;20822;-83
2022/10/16 06:48:39;;;;;;;4.10;3.70;;;16.70;99.90;;;;;;5050220;28;20479;-82
2022/10/16 06:51:07;;;;;;;5.77;3.10;;;16.70;99.90;;;;;;5053633;28;20593;-83
2022/10/16 06:53:36;;;;;;;4.50;2.77;;;16.80;99.90;;;;;;5037546;28;20442;-82
2022/10/16 06:56:09;;;;;;;4.10;2.50;;;16.80;99.90;;;;;;5037996;28;20827;-84
2022/10/16 06:58:35;;;;;;;4.43;3.10;;;16.80;99.90;;;;;;5037476;28;20476;-84
2022/10/16 07:01:02;;;;;;;6.00;3.07;;;16.90;99.90;;;;;;5037364;28;20831;-84
2022/10/16 07:03:29;;;;;;;2.93;2.63;;;16.90;99.90;;;;;;5037238;28;20486;-84
2022/10/16 07:05:57;;;;;;;4.50;2.80;;;16.90;99.90;;;;;;5037114;28;20449;-84
2022/10/16 07:08:24;;;;;;;5.40;3.33;;;16.90;99.90;;;;;;5037406;28;20465;-84
2022/10/16 07:11:00;;;;;;;4.30;3.00;;;17.10;99.90;;;;;;5043079;28;20442;-84
2022/10/16 07:13:27;;;;;;;5.93;3.00;;;17.20;99.90;;;;;;5050588;28;20437;-84
2022/10/16 07:15:53;;;;;;;3.77;3.10;;;17.30;99.90;;;;;;5039367;28;20998;-82
2022/10/16 07:18:20;;;;;;;8.07;3.00;;;17.30;99.90;;;;;;5041479;28;20471;-84
2022/10/16 07:20:47;;;;;;;5.47;3.40;;;17.50;99.90;;;;;;5052610;28;20445;-83
2022/10/16 07:23:15;;;;;;;5.70;3.40;;;17.60;99.90;;;;;;5047391;28;20488;-84
2022/10/16 07:25:42;;;;;;;11.77;3.57;;;17.60;99.90;;;;;;5046175;28;20446;-83
2022/10/16 07:28:08;;;;;;;3.90;3.23;;;17.60;99.90;;;;;;5048011;28;20466;-84
2022/10/16 07:30:37;;;;;;;3.90;3.07;;;17.70;99.90;;;;;;5037588;28;20477;-84
2022/10/16 07:33:04;;;;;;;5.07;3.03;;;17.60;99.90;;;;;;5036814;28;20523;-84
2022/10/16 07:35:31;;;;;;;6.90;2.77;;;17.60;99.90;;;;;;5036412;28;20457;-85
2022/10/16 07:37:57;;;;;;;5.37;3.30;;;17.50;99.90;;;;;;5036425;28;20476;-84
2022/10/16 07:40:26;;;;;;;4.50;3.33;;;17.50;99.90;;;;;;5043100;28;20430;-84
2022/10/16 07:42:53;;;;;;;5.07;3.10;;;17.40;99.90;;;;;;5043234;28;21125;-84
2022/10/16 07:45:20;;;;;;;9.47;3.17;;;17.40;99.90;;;;;;5036257;28;20446;-84
2022/10/16 07:47:47;;;;;;;5.17;3.60;;;17.40;99.90;;;;;;5035762;28;20496;-84
2022/10/16 07:50:13;;;;;;;7.07;3.40;;;17.40;99.90;;;;;;5036559;28;20450;-83
2022/10/16 07:52:40;;;;;;;9.20;4.40;;;17.40;99.90;;;;;;5036182;28;20452;-84
2022/10/16 07:55:08;;;;;;;3.60;2.90;;;17.50;99.90;;;;;;5036884;28;20449;-84
2022/10/16 07:57:36;;;;;;;4.50;3.40;;;17.60;99.90;;;;;;5035391;28;20981;-84
2022/10/16 08:00:03;;;;;;;7.27;3.47;;;17.70;99.90;;;;;;5035929;28;20446;-84
2022/10/16 08:02:29;;;;;;;4.80;2.73;;;17.80;99.90;;;;;;5035582;28;20491;-84
2022/10/16 08:04:56;;;;;;;6.80;3.03;;;17.90;99.90;;;;;;5035994;28;20453;-84
2022/10/16 08:07:23;;;;;;;4.87;3.00;;;17.90;99.90;;;;;;5036600;28;20434;-85
2022/10/16 08:09:51;;;;;;;3.20;2.40;;;17.90;99.90;;;;;;5047274;28;20458;-83
2022/10/16 08:12:18;;;;;;;5.40;2.70;;;17.90;99.90;;;;;;5040265;28;20552;-84
2022/10/16 08:14:46;;;;;;;5.00;3.00;;;18.00;99.90;;;;;;5036886;28;20449;-83
2022/10/16 08:17:16;;;;;;;3.23;2.43;;;18.10;99.90;;;;;;5036176;28;20454;-83
2022/10/16 08:19:45;;;;;;;5.80;3.20;;;18.20;99.90;;;;;;5052057;28;20470;-82
2022/10/16 08:22:12;;;;;;;6.23;2.73;;;18.40;99.90;;;;;;5057176;28;20473;-83
2022/10/16 08:24:39;;;;;;;4.07;2.80;;;18.50;99.90;;;;;;5044289;28;20445;-83
2022/10/16 08:27:06;;;;;;;3.80;2.33;;;18.70;99.90;;;;;;5037760;28;20453;-84
2022/10/16 08:29:33;;;;;;;4.60;2.60;;;19.10;99.90;;;;;;5037096;28;20477;-83
2022/10/16 08:32:01;;;;;;;5.20;2.80;;;19.60;99.90;;;;;;5037163;28;20461;-84
2022/10/16 08:34:28;;;;;;;4.83;3.20;;;19.90;99.90;;;;;;5037258;28;20463;-83
2022/10/16 08:36:55;;;;;;;4.33;3.10;;;20.10;99.90;;;;;;5035351;28;20454;-84
2022/10/16 08:39:22;;;;;;;6.40;2.37;;;20.20;99.90;;;;;;5038467;28;20485;-84
2022/10/16 08:42:08;;;;;;;6.30;2.23;;;20.20;99.90;;;;;;5047428;28;21025;-84
2022/10/16 08:44:57;;;;;;;3.20;2.40;;;20.40;99.90;;;;;;5044964;28;20952;-84
2022/10/16 08:47:34;;;;;;;3.83;2.70;;;20.60;99.90;;;;;;5046613;28;20437;-85
2022/10/16 08:50:12;;;;;;;5.53;2.60;;;20.60;99.90;;;;;;5044661;28;20441;-83
2022/10/16 08:52:42;;;;;;;5.33;2.40;;;20.60;99.90;;;;;;5039320;28;20449;-83
2022/10/16 08:55:24;;;;;;;4.53;2.73;;;20.60;99.90;;;;;;5028830;28;20434;-83
2022/10/16 08:57:50;;;;;;;3.03;2.50;;;20.70;99.90;;;;;;5025125;28;20507;-84
2022/10/16 09:00:18;;;;;;;3.70;2.30;;;20.60;99.90;;;;;;5031556;28;20434;-80
2022/10/16 09:02:54;;;;;;;6.40;1.93;;;20.50;99.90;;;;;;5028975;28;20484;-80
2022/10/16 09:06:12;;;;;;;3.87;1.87;;;20.40;99.90;;;;;;5032469;28;20437;-82
2022/10/16 09:08:46;;;;;;;4.30;2.30;;;20.20;99.90;;;;;;4952273;29;20469;-81
2022/10/16 09:11:20;;;;;;;3.20;1.93;;;20.30;99.90;;;;;;4954594;28;20454;-85
2022/10/16 09:13:53;;;;;;;3.50;2.10;;;20.50;99.90;;;;;;5002850;28;21080;-80
2022/10/16 09:16:24;;;;;;;3.63;2.07;;;20.60;99.90;;;;;;5026382;28;20446;-80
2022/10/16 09:19:01;;;;;;;2.00;1.77;;;20.70;99.90;;;;;;5032118;28;20480;-81
2022/10/16 09:21:31;;;;;;;4.67;2.50;;;20.90;99.90;;;;;;5035520;28;20434;-83
2022/10/16 09:24:00;;;;;;;2.43;2.23;;;21.10;99.90;;;;;;5034962;28;20488;-82
2022/10/16 09:26:27;;;;;;;3.23;1.70;;;21.50;99.90;;;;;;5035818;28;20430;-82
2022/10/16 09:28:54;;;;;;;2.67;2.00;;;21.70;99.90;;;;;;5039718;28;21079;-83
2022/10/16 09:31:23;;;;;;;5.23;2.30;;;21.90;99.90;;;;;;5037023;28;20453;-83
2022/10/16 09:33:55;;;;;;;3.80;1.83;;;22.10;99.90;;;;;;5037412;28;20453;-83
2022/10/16 09:36:24;;;;;;;2.43;2.00;;;22.10;99.90;;;;;;5032857;28;20526;-83
2022/10/16 09:39:02;;;;;;;2.60;2.10;;;21.80;99.90;;;;;;5022076;28;20545;-83
2022/10/16 09:41:28;;;;;;;3.67;2.40;;;21.80;99.90;;;;;;5020842;28;20434;-82
2022/10/16 09:43:58;;;;;;;7.63;1.97;;;22.00;99.90;;;;;;5017444;28;20485;-83
2022/10/16 09:46:30;;;;;;;3.27;2.20;;;21.90;99.90;;;;;;5016882;28;20455;-83
2022/10/16 09:49:00;;;;;;;4.97;3.00;;;21.80;99.90;;;;;;5017342;28;20482;-82
2022/10/16 09:51:29;;;;;;;3.07;2.63;;;21.70;99.90;;;;;;5016863;28;20447;-83
2022/10/16 09:53:58;;;;;;;5.23;2.30;;;21.80;99.90;;;;;;5047887;28;20455;-83
2022/10/16 09:56:28;;;;;;;2.73;2.53;;;22.10;99.90;;;;;;5038130;28;20452;-83
2022/10/16 09:58:56;;;;;;;2.67;2.20;;;22.90;99.90;;;;;;5041991;28;20476;-82
2022/10/16 10:01:29;;;;;;;2.97;1.73;;;24.70;99.90;;;;;;5044076;28;20445;-82
2022/10/16 10:04:00;;;;;;;4.50;2.10;;;26.20;99.40;;;;;;5036748;28;20570;-83
2022/10/16 10:06:29;;;;;;;4.37;1.90;;;26.00;97.80;;;;;;5040330;28;20921;-84
2022/10/16 10:08:59;;;;;;;3.07;1.70;;;25.60;97.80;;;;;;5042533;28;20464;-82
2022/10/16 10:11:49;;;;;;;3.53;1.90;;;25.30;98.50;;;;;;5029032;28;20439;-83
2022/10/16 10:14:36;;;;;;;2.40;1.70;;;25.20;99.00;;;;;;5017219;28;20512;-83
2022/10/16 10:17:13;;;;;;;2.30;1.93;;;24.80;99.20;;;;;;5016408;28;20935;-83
2022/10/16 10:19:45;;;;;;;2.40;1.93;;;24.80;99.60;;;;;;5029706;28;20463;-82
2022/10/16 10:22:28;;;;;;;8.27;2.30;;;24.70;99.30;;;;;;5025033;28;20446;-83
2022/10/16 10:25:01;;;;;;;4.20;1.70;;;25.40;98.30;;;;;;5018824;28;20942;-83
2022/10/16 10:27:37;;;;;;;3.47;2.23;;;25.80;97.50;;;;;;5015155;28;20451;-83
2022/10/16 10:30:11;;;;;;;1.73;1.50;;;26.20;97.00;;;;;;5022502;28;20809;-84
2022/10/16 10:32:46;;;;;;;5.40;2.10;;;26.50;96.70;;;;;;5020299;28;20440;-84
2022/10/16 10:35:23;;;;;;;4.07;1.93;;;26.60;95.20;;;;;;5030853;28;20446;-85
2022/10/16 10:38:04;;;;;;;3.23;2.40;;;26.30;95.40;;;;;;5013106;28;20477;-83
2022/10/16 10:40:42;;;;;;;2.10;1.70;;;26.10;96.00;;;;;;5027570;28;20434;-83
2022/10/16 10:43:18;;;;;;;2.70;1.87;;;26.10;96.40;;;;;;5018771;28;20964;-82
2022/10/16 10:45:47;;;;;;;4.57;2.83;;;26.50;95.70;;;;;;5020514;28;20443;-83
2022/10/16 10:48:23;;;;;;;4.30;2.27;;;27.30;94.70;;;;;;5023691;28;20461;-82
2022/10/16 10:50:56;;;;;;;5.20;1.70;;;27.80;93.60;;;;;;5022003;28;20850;-83
2022/10/16 10:53:34;;;;;;;3.77;2.00;;;28.00;92.50;;;;;;5025118;28;20489;-83
2022/10/16 10:56:14;;;;;;;3.20;1.60;;;29.10;91.70;;;;;;5017402;28;20547;-83
2022/10/16 10:58:59;;;;;;;3.60;1.50;;;31.30;86.90;;;;;;5027774;28;20468;-83
2022/10/16 11:01:37;;;;;;;3.00;1.50;;;33.70;76.00;;;;;;5019861;28;20453;-83
2022/10/16 11:04:35;;;;;;;4.80;1.73;;;35.70;66.10;;;;;;5023949;28;20788;-83
2022/10/16 11:07:06;;;;;;;4.83;1.73;;;36.00;62.30;;;;;;5040965;28;20454;-82
2022/10/16 11:09:37;;;;;;;3.27;1.80;;;36.50;58.40;;;;;;5052630;28;20475;-82
2022/10/16 11:12:11;;;;;;;2.10;1.70;;;36.00;58.30;;;;;;5040712;28;20428;-82
2022/10/16 11:14:43;;;;;;;4.10;1.80;;;34.30;60.00;;;;;;5040547;28;20508;-84
2022/10/16 11:17:15;;;;;;;2.50;1.73;;;34.00;59.80;;;;;;5028849;28;20437;-84
2022/10/16 11:19:47;;;;;;;6.13;1.80;;;33.00;61.20;;;;;;5022841;28;20465;-84
2022/10/16 11:22:20;;;;;;;3.80;2.60;;;32.20;62.70;;;;;;5023349;28;20447;-83
2022/10/16 11:24:52;;;;;;;3.20;1.60;;;32.30;64.10;;;;;;5033165;28;20445;-84
2022/10/16 11:27:24;;;;;;;2.70;1.77;;;32.90;64.20;;;;;;5028935;28;20442;-84
2022/10/16 11:29:57;;;;;;;3.00;1.70;;;34.30;61.10;;;;;;5023845;28;20546;-84
2022/10/16 11:32:30;;;;;;;2.03;1.80;;;34.90;57.90;;;;;;5032741;28;20445;-83
2022/10/16 11:35:03;;;;;;;2.73;1.50;;;34.30;57.50;;;;;;5034461;28;20541;-83
2022/10/16 11:37:39;;;;;;;3.33;1.50;;;33.50;59.50;;;;;;5027321;28;20452;-84
2022/10/16 11:40:22;;;;;;;2.80;1.80;;;33.90;58.60;;;;;;5033126;28;20442;-85
2022/10/16 11:42:55;;;;;;;4.70;1.80;;;33.60;58.50;;;;;;5024051;28;20477;-83
2022/10/16 11:45:30;;;;;;;1.73;1.53;;;33.40;58.40;;;;;;5028636;28;20457;-82
2022/10/16 11:48:02;;;;;;;2.70;1.70;;;34.50;57.70;;;;;;5028952;28;20480;-85
2022/10/16 11:50:34;;;;;;;1.80;1.70;;;35.80;55.80;;;;;;5035469;28;20447;-86
2022/10/16 11:53:16;;;;;;;3.73;1.73;;;37.60;52.80;;;;;;5032149;28;20444;-84
2022/10/16 11:55:45;;;;;;;2.40;1.63;;;38.20;51.10;;;;;;5030727;28;20472;-84
2022/10/16 11:58:20;;;;;;;1.97;1.20;;;39.00;49.50;;;;;;5030440;28;20465;-84
2022/10/16 12:00:53;;;;;;;2.63;1.53;;;39.80;47.60;;;;;;5027289;28;20446;-86
2022/10/16 12:03:27;;;;;;;2.60;1.50;;;39.80;45.30;;;;;;5027216;28;20448;-84
2022/10/16 12:06:07;;;;;;;4.43;1.90;;;39.00;45.90;;;;;;5023230;28;20457;-83
2022/10/16 12:08:36;;;;;;;5.43;2.80;;;38.90;45.40;;;;;;5018761;28;21012;-84
2022/10/16 12:11:23;;;;;;;5.70;3.20;;;38.90;45.10;;;;;;5011919;28;20457;-83
2022/10/16 12:13:49;;;;;;;2.33;1.87;;;37.50;47.00;;;;;;5024081;28;20493;-83
2022/10/16 12:16:24;;;;;;;2.97;1.60;;;36.30;47.80;;;;;;5025257;28;20439;-84
2022/10/16 12:19:10;;;;;;;5.43;2.90;;;35.00;50.50;;;;;;5022777;28;20467;-83
2022/10/16 12:21:37;;;;;;;4.53;2.10;;;34.00;52.80;;;;;;5023236;28;20449;-83
2022/10/16 12:24:06;;;;;;;2.50;1.67;;;33.40;52.90;;;;;;5040560;22;20505;-86
2022/10/16 12:26:35;;;;;;;3.67;2.17;;;32.60;53.40;;;;;;5034139;28;20447;-86
2022/10/16 12:29:15;;;;;;;1.50;1.30;;;32.00;55.10;;;;;;5052310;28;20436;-86
2022/10/16 12:31:46;;;;;;;3.50;1.97;;;31.80;56.60;;;;;;5043709;28;20451;-86
2022/10/16 12:34:24;;;;;;;3.60;2.03;;;31.60;56.90;;;;;;5034105;28;20988;-85
2022/10/16 12:36:51;;;;;;;2.80;1.80;;;31.60;56.60;;;;;;5043982;28;20460;-85
2022/10/16 12:39:24;;;;;;;1.73;1.30;;;31.40;56.00;;;;;;5052817;28;20453;-85
2022/10/16 12:42:02;;;;;;;4.60;2.00;;;30.50;57.30;;;;;;5057410;28;20440;-85
2022/10/16 12:44:34;;;;;;;1.60;1.40;;;30.00;58.70;;;;;;5045704;28;20472;-86
2022/10/16 12:47:01;;;;;;;2.60;1.30;;;30.00;59.70;;;;;;5043266;28;20436;-85
2022/10/16 12:49:37;;;;;;;2.93;1.30;;;29.50;59.50;;;;;;5057755;28;20429;-86
2022/10/16 12:52:04;;;;;;;1.70;1.37;;;29.40;61.50;;;;;;5043082;28;20439;-87
2022/10/16 12:54:36;;;;;;;2.80;1.73;;;29.00;62.00;;;;;;5026335;28;20476;-86
2022/10/16 12:57:20;;;;;;;2.30;1.70;;;29.00;62.90;;;;;;5018848;28;20846;-86
2022/10/16 12:59:52;;;;;;;5.83;2.17;;;29.30;64.60;;;;;;5018525;28;20454;-86